createdAt,value
2022-11-26T00:01:47.914Z,4.00
2022-11-26T00:06:52.787Z,4.00
2022-11-26T00:11:57.197Z,4.10
2022-11-26T00:17:00.678Z,4.40
2022-11-26T00:22:05.590Z,4.60
2022-11-26T00:27:15.441Z,4.80
2022-11-26T00:32:20.681Z,4.70
2022-11-26T00:37:29.654Z,4.80
2022-11-26T00:42:33.023Z,4.80
2022-11-26T00:47:36.365Z,4.90
2022-11-26T00:52:41.288Z,4.90
2022-11-26T00:57:45.606Z,4.90
2022-11-26T01:02:49.304Z,4.90
2022-11-26T01:07:55.152Z,5.00
2022-11-26T01:12:58.827Z,4.90
2022-11-26T01:18:02.903Z,4.90
2022-11-26T01:23:07.908Z,5.00
2022-11-26T01:28:13.203Z,5.10
2022-11-26T01:33:16.630Z,5.00
2022-11-26T01:38:21.379Z,5.00
2022-11-26T01:43:29.036Z,5.00
2022-11-26T01:48:34.639Z,5.00
2022-11-26T01:53:45.040Z,4.90
2022-11-26T01:58:54.677Z,4.80
2022-11-26T02:04:07.038Z,4.70
2022-11-26T02:09:15.252Z,4.70
2022-11-26T02:14:22.262Z,4.70
2022-11-26T02:20:04.318Z,4.60
2022-11-26T02:25:18.997Z,4.60
2022-11-26T02:30:24.283Z,4.60
2022-11-26T02:35:34.967Z,4.60
2022-11-26T02:40:39.699Z,4.50
2022-11-26T02:45:50.576Z,4.50
2022-11-26T02:50:58.339Z,4.50
2022-11-26T02:56:07.803Z,4.50
2022-11-26T03:01:20.714Z,4.50
2022-11-26T03:06:24.359Z,4.40
2022-11-26T03:11:28.132Z,4.40
2022-11-26T03:16:32.980Z,4.40
2022-11-26T03:21:38.467Z,4.40
2022-11-26T03:26:47.878Z,4.30
2022-11-26T03:31:53.848Z,4.20
2022-11-26T03:36:59.562Z,4.10
2022-11-26T03:42:11.011Z,4.00
2022-11-26T03:47:18.776Z,3.90
2022-11-26T03:52:22.420Z,3.80
2022-11-26T03:57:30.343Z,3.80
2022-11-26T04:02:35.104Z,3.90
2022-11-26T04:07:38.662Z,3.90
2022-11-26T04:12:42.196Z,3.90
2022-11-26T04:17:46.888Z,3.80
2022-11-26T04:22:50.305Z,3.70
2022-11-26T04:27:54.758Z,3.70
2022-11-26T04:32:59.519Z,3.60
2022-11-26T04:38:02.861Z,3.40
2022-11-26T04:43:07.180Z,3.30
2022-11-26T04:48:16.933Z,3.10
2022-11-26T04:53:22.177Z,2.80
2022-11-26T04:58:25.540Z,2.50
2022-11-26T05:03:30.284Z,2.30
2022-11-26T05:08:33.669Z,2.10
2022-11-26T05:13:36.920Z,2.00
2022-11-26T05:18:43.749Z,2.10
2022-11-26T05:23:47.069Z,2.30
2022-11-26T05:28:50.425Z,2.30
2022-11-26T05:33:55.345Z,2.10
2022-11-26T05:38:59.689Z,1.90
2022-11-26T05:44:03.334Z,1.70
2022-11-26T05:49:09.375Z,1.50
2022-11-26T05:54:17.154Z,1.30
2022-11-26T05:59:20.524Z,1.10
2022-11-26T06:04:25.284Z,1.10
2022-11-26T06:09:30.802Z,1.10
2022-11-26T06:14:34.210Z,1.00
2022-11-26T06:19:39.090Z,0.90
2022-11-26T06:24:42.612Z,0.70
2022-11-26T06:29:46.243Z,0.70
2022-11-26T06:34:54.040Z,0.60
2022-11-26T06:39:57.841Z,0.60
2022-11-26T06:45:02.207Z,0.60
2022-11-26T06:50:10.861Z,0.60
2022-11-26T06:55:16.877Z,0.60
2022-11-26T07:00:22.093Z,0.60
2022-11-26T07:05:27.171Z,0.60
2022-11-26T07:10:30.673Z,0.70
2022-11-26T07:15:35.137Z,0.70
2022-11-26T07:20:40.980Z,0.80
2022-11-26T07:25:44.505Z,1.00
2022-11-26T07:30:48.019Z,1.10
2022-11-26T07:35:52.873Z,1.10
2022-11-26T07:41:03.523Z,1.00
2022-11-26T07:46:09.934Z,1.10
2022-11-26T07:51:21.483Z,1.20
2022-11-26T07:56:25.628Z,1.30
2022-11-26T08:01:30.733Z,1.40
2022-11-26T08:06:38.779Z,1.50
2022-11-26T08:11:42.284Z,1.80
2022-11-26T08:16:46.791Z,2.40
2022-11-26T08:21:53.820Z,2.80
2022-11-26T08:26:59.350Z,2.90
2022-11-26T08:32:03.807Z,3.10
2022-11-26T08:37:17.443Z,3.20
2022-11-26T08:42:22.233Z,3.30
2022-11-26T08:47:33.373Z,3.50
2022-11-26T08:52:38.202Z,3.80
2022-11-26T08:57:41.483Z,4.10
2022-11-26T09:02:44.815Z,4.40
2022-11-26T09:07:49.631Z,4.60
2022-11-26T09:12:53.204Z,4.50
2022-11-26T09:17:57.668Z,4.40
2022-11-26T09:23:08.433Z,4.30
2022-11-26T09:28:12.048Z,4.50
2022-11-26T09:33:16.556Z,4.80
2022-11-26T09:38:23.733Z,5.10
2022-11-26T09:43:48.250Z,5.30
2022-11-26T09:49:00.232Z,5.50
2022-11-26T09:54:10.934Z,5.60
2022-11-26T09:59:18.921Z,5.70
2022-11-26T10:04:27.560Z,6.00
2022-11-26T10:09:55.976Z,5.90
2022-11-26T10:15:14.406Z,5.90
2022-11-26T10:20:42.857Z,5.90
2022-11-26T10:25:50.840Z,5.90
2022-11-26T10:30:59.340Z,6.10
2022-11-26T10:36:06.855Z,6.10
2022-11-26T10:41:11.823Z,6.20
2022-11-26T10:46:33.075Z,6.40
2022-11-26T10:51:38.694Z,6.70
2022-11-26T10:56:47.922Z,7.00
2022-11-26T11:01:57.393Z,7.30
2022-11-26T11:07:01.192Z,7.60
2022-11-26T11:12:22.044Z,7.80
2022-11-26T11:17:33.918Z,8.00
2022-11-26T11:22:40.907Z,8.20
2022-11-26T11:27:46.668Z,8.40
2022-11-26T11:32:51.104Z,8.60
2022-11-26T11:37:59.541Z,8.70
2022-11-26T11:43:18.259Z,8.80
2022-11-26T11:48:43.453Z,8.90
2022-11-26T11:53:58.871Z,8.90
2022-11-26T11:59:58.521Z,9.00
2022-11-26T12:05:22.964Z,9.10
2022-11-26T12:10:35.439Z,9.10
2022-11-26T12:15:46.397Z,9.20
2022-11-26T12:20:55.344Z,9.30
2022-11-26T12:26:08.942Z,9.40
2022-11-26T12:31:20.931Z,9.30
2022-11-26T12:36:28.455Z,9.50
2022-11-26T12:41:40.595Z,9.50
2022-11-26T12:47:00.187Z,9.50
2022-11-26T12:52:17.325Z,8.80
2022-11-26T12:57:34.608Z,8.30
2022-11-26T13:02:47.316Z,8.20
2022-11-26T13:08:10.950Z,8.20
2022-11-26T13:13:20.990Z,8.60
2022-11-26T13:18:31.852Z,9.00
2022-11-26T13:23:49.665Z,9.10
2022-11-26T13:29:19.996Z,9.10
2022-11-26T13:34:51.088Z,9.20
2022-11-26T13:40:45.463Z,8.90
2022-11-26T13:46:21.904Z,8.80
2022-11-26T13:51:34.118Z,8.80
2022-11-26T13:56:39.456Z,8.80
2022-11-26T14:01:43.502Z,8.70
2022-11-26T14:07:22.403Z,8.70
2022-11-26T14:13:04.779Z,8.70
2022-11-26T14:18:11.087Z,8.60
2022-11-26T14:23:44.043Z,8.50
2022-11-26T14:28:48.696Z,8.40
2022-11-26T14:33:57.986Z,8.40
2022-11-26T14:39:12.378Z,8.20
2022-11-26T14:44:25.018Z,8.00
2022-11-26T14:49:38.869Z,7.90
2022-11-26T14:54:43.205Z,7.60
2022-11-26T15:00:00.396Z,7.30
2022-11-26T15:05:15.890Z,7.00
2022-11-26T15:10:22.157Z,6.60
2022-11-26T15:15:26.062Z,6.10
2022-11-26T15:20:34.024Z,5.60
2022-11-26T15:25:40.334Z,5.20
2022-11-26T15:30:56.215Z,4.80
2022-11-26T15:36:01.271Z,4.40
2022-11-26T15:41:09.580Z,4.00
2022-11-26T15:46:18.903Z,3.60
2022-11-26T15:51:35.548Z,3.50
2022-11-26T15:56:42.342Z,3.30
2022-11-26T16:01:48.254Z,3.00
2022-11-26T16:07:15.497Z,2.90
2022-11-26T16:12:32.032Z,2.70
2022-11-26T16:17:35.940Z,2.50
2022-11-26T16:22:59.633Z,2.40
2022-11-26T16:28:16.113Z,2.30
2022-11-26T16:33:20.673Z,2.10
2022-11-26T16:38:29.822Z,2.00
2022-11-26T16:43:41.652Z,2.00
2022-11-26T16:48:56.085Z,1.90
2022-11-26T16:54:19.070Z,1.80
2022-11-26T16:59:28.505Z,1.70
2022-11-26T17:04:32.101Z,1.60
2022-11-26T17:09:41.172Z,1.50
2022-11-26T17:14:46.528Z,1.50
2022-11-26T17:19:50.182Z,1.40
2022-11-26T17:24:55.048Z,1.30
2022-11-26T17:29:58.674Z,1.40
2022-11-26T17:35:02.162Z,1.20
2022-11-26T17:40:13.844Z,1.10
2022-11-26T17:45:18.334Z,1.10
2022-11-26T17:50:23.996Z,1.00
2022-11-26T17:55:29.105Z,1.20
2022-11-26T18:00:32.873Z,1.10
2022-11-26T18:05:41.647Z,1.20
2022-11-26T18:10:47.079Z,1.10
2022-11-26T18:15:50.477Z,1.00
2022-11-26T18:21:14.017Z,1.00
2022-11-26T18:26:22.882Z,0.90
2022-11-26T18:31:28.869Z,0.90
2022-11-26T18:36:34.255Z,1.00
2022-11-26T18:41:43.358Z,0.90
2022-11-26T18:46:47.164Z,0.70
2022-11-26T18:51:51.869Z,0.70
2022-11-26T18:56:56.871Z,0.80
2022-11-26T19:02:00.825Z,0.70
2022-11-26T19:07:06.467Z,0.70
2022-11-26T19:12:13.726Z,0.70
2022-11-26T19:17:19.518Z,0.80
2022-11-26T19:22:25.432Z,0.90
2022-11-26T19:27:30.223Z,0.90
2022-11-26T19:32:33.641Z,0.90
2022-11-26T19:37:47.090Z,0.80
2022-11-26T19:42:51.940Z,0.50
2022-11-26T19:47:57.441Z,0.40
2022-11-26T19:53:06.934Z,0.20
2022-11-26T19:58:12.766Z,0.10
2022-11-26T20:03:16.285Z,0.00
2022-11-26T20:08:20.629Z,-0.20
2022-11-26T20:13:25.617Z,-0.30
2022-11-26T20:18:35.194Z,-0.30
2022-11-26T20:23:39.070Z,-0.30
2022-11-26T20:28:46.367Z,-0.40
2022-11-26T20:33:49.899Z,-0.50
2022-11-26T20:38:56.576Z,-0.60
2022-11-26T20:44:28.247Z,-0.60
2022-11-26T20:49:48.635Z,-0.60
2022-11-26T20:55:08.116Z,-0.60
2022-11-26T21:00:17.266Z,-0.60
2022-11-26T21:05:21.631Z,-0.70
2022-11-26T21:10:31.025Z,-0.70
2022-11-26T21:15:36.120Z,-0.80
2022-11-26T21:20:45.750Z,-0.80
2022-11-26T21:25:49.139Z,-0.90
2022-11-26T21:30:58.432Z,-0.80
2022-11-26T21:36:17.170Z,-0.70
2022-11-26T21:41:21.359Z,-0.60
2022-11-26T21:46:38.869Z,-0.50
2022-11-26T21:51:43.147Z,-0.60
2022-11-26T21:56:47.929Z,-0.70
2022-11-26T22:01:59.131Z,-0.80
2022-11-26T22:07:03.775Z,-0.90
2022-11-26T22:12:08.344Z,-1.00
2022-11-26T22:17:31.391Z,-1.10
2022-11-26T22:22:46.945Z,-1.10
2022-11-26T22:28:06.759Z,-1.00
2022-11-26T22:33:12.087Z,-0.90
2022-11-26T22:38:15.731Z,-0.80
2022-11-26T22:43:20.585Z,-0.60
2022-11-26T22:48:36.237Z,-0.50
2022-11-26T22:53:40.063Z,-0.40
2022-11-26T22:59:00.219Z,-0.40
2022-11-26T23:04:11.420Z,-0.50
2022-11-26T23:09:24.863Z,-0.60
2022-11-26T23:14:37.181Z,-0.80
2022-11-26T23:19:44.085Z,-0.90
2022-11-26T23:24:58.880Z,-0.90
2022-11-26T23:30:21.383Z,-0.90
2022-11-26T23:35:35.245Z,-1.00
2022-11-26T23:40:43.822Z,-1.00
2022-11-26T23:46:02.936Z,-1.10
2022-11-26T23:51:11.815Z,-1.20
2022-11-26T23:56:20.377Z,-1.20
